Time;durP1;ratioP1;P1;durP2;ratioP2;P2;SDS_P1;SDS_P2;PMS_P1;PMS_P2;Temp;Humidity;BMP_temperature;BMP_pressure;BME280_temperature;BME280_humidity;BME280_pressure;Samples;Min_cycle;Max_cycle;Signal;HPM_P1;HPM_P2
2021/08/03 00:00:34;;;;;;;1.30;0.98;;;;;;;14.84;79.27;100611.06;4948463;28;20515;-77
2021/08/03 00:03:06;;;;;;;3.28;1.40;;;;;;;14.84;79.31;100604.88;4941840;28;20079;-77
2021/08/03 00:05:39;;;;;;;2.85;1.60;;;;;;;14.78;79.25;100603.31;4914537;29;20086;-77
2021/08/03 00:08:16;;;;;;;1.52;1.20;;;;;;;14.81;79.02;100607.66;4923438;29;20048;-77
2021/08/03 00:10:43;;;;;;;3.30;1.48;;;;;;;14.82;79.49;100606.72;4932494;29;20079;-77
2021/08/03 00:13:10;;;;;;;2.95;1.52;;;;;;;14.83;79.94;100616.44;4941692;28;20130;-76
2021/08/03 00:15:40;;;;;;;2.03;1.40;;;;;;;14.83;79.63;100609.31;4930271;28;20048;-77
2021/08/03 00:18:07;;;;;;;1.55;1.33;;;;;;;14.82;80.28;100609.38;4931302;28;20036;-76
2021/08/03 00:20:36;;;;;;;3.05;1.40;;;;;;;14.81;80.27;100613.84;4942806;28;20044;-77
2021/08/03 00:23:03;;;;;;;2.40;1.65;;;;;;;14.80;80.27;100620.09;4917864;29;20043;-77
2021/08/03 00:25:29;;;;;;;1.63;1.30;;;;;;;14.81;80.49;100613.84;4924560;29;20054;-78
2021/08/03 00:27:57;;;;;;;3.03;1.50;;;;;;;14.80;80.27;100612.13;4926061;29;20023;-77
2021/08/03 00:30:25;;;;;;;2.00;1.42;;;;;;;14.82;80.25;100617.38;4934353;29;20075;-76
2021/08/03 00:32:54;;;;;;;2.80;1.20;;;;;;;14.75;80.41;100624.72;4936746;29;20130;-76
2021/08/03 00:35:21;;;;;;;2.53;1.33;;;;;;;14.75;80.61;100623.84;4942388;29;20075;-76
2021/08/03 00:37:49;;;;;;;2.08;1.30;;;;;;;14.73;80.93;100625.69;4896502;29;20044;-77
2021/08/03 00:40:17;;;;;;;1.67;1.38;;;;;;;14.71;81.40;100623.06;4909915;29;20055;-77
2021/08/03 00:42:44;;;;;;;4.05;2.03;;;;;;;14.69;81.76;100624.06;4911952;29;20047;-77
2021/08/03 00:45:11;;;;;;;3.53;1.38;;;;;;;14.67;81.72;100623.28;4952608;28;20051;-76
2021/08/03 00:47:37;;;;;;;4.13;1.40;;;;;;;14.64;80.90;100622.47;4925866;29;20040;-76
2021/08/03 00:50:05;;;;;;;2.97;1.60;;;;;;;14.66;81.41;100614.44;4904850;29;20043;-77
2021/08/03 00:52:32;;;;;;;1.90;1.42;;;;;;;14.63;81.76;100619.88;4906915;29;20075;-76
2021/08/03 00:54:58;;;;;;;2.50;1.52;;;;;;;14.63;82.49;100619.88;4917902;29;20556;-76
2021/08/03 00:57:25;;;;;;;3.58;1.83;;;;;;;14.69;81.62;100624.94;4917876;29;20058;-76
2021/08/03 00:59:52;;;;;;;2.35;1.55;;;;;;;14.62;81.91;100624.28;4935148;28;20091;-76
2021/08/03 01:02:19;;;;;;;2.55;1.50;;;;;;;14.59;82.78;100624.41;4943407;28;20040;-76
2021/08/03 01:04:46;;;;;;;1.80;1.25;;;;;;;14.57;82.78;100634.25;4954129;28;20459;-76
2021/08/03 01:07:23;;;;;;;1.70;1.35;;;;;;;14.54;83.09;100625.50;4940323;28;20140;-78
2021/08/03 01:10:16;;;;;;;2.47;1.30;;;;;;;14.54;83.01;100629.03;4942081;28;20047;-77
2021/08/03 01:13:03;;;;;;;1.80;1.30;;;;;;;14.48;83.84;100629.28;4949582;29;20043;-76
2021/08/03 01:15:44;;;;;;;2.28;1.35;;;;;;;14.44;84.79;100627.59;4927722;29;20043;-77
2021/08/03 01:18:16;;;;;;;1.50;1.20;;;;;;;14.44;84.32;100618.78;4960811;28;20044;-78
2021/08/03 01:21:10;;;;;;;2.35;1.40;;;;;;;14.45;83.95;100616.06;4925775;29;20035;-77
2021/08/03 01:24:11;;;;;;;2.70;1.45;;;;;;;14.35;85.04;100617.31;4929041;29;20052;-78
2021/08/03 01:27:09;;;;;;;2.13;1.60;;;;;;;14.39;84.65;100623.41;4944550;29;20454;-76
2021/08/03 01:29:37;;;;;;;2.47;1.75;;;;;;;14.36;84.49;100621.69;4956188;28;20398;-78
2021/08/03 01:32:08;;;;;;;5.10;1.75;;;;;;;14.31;84.57;100621.03;4926996;29;20043;-78
2021/08/03 01:34:39;;;;;;;2.20;1.50;;;;;;;14.30;84.66;100617.50;4956660;28;20511;-78
2021/08/03 01:37:06;;;;;;;2.30;1.50;;;;;;;14.23;84.37;100608.00;4929324;29;20039;-77
2021/08/03 01:39:39;;;;;;;2.17;1.50;;;;;;;14.13;85.14;100613.72;4927352;29;20047;-77
2021/08/03 01:42:07;;;;;;;2.00;1.30;;;;;;;14.06;86.46;100624.56;4923067;29;20459;-77
2021/08/03 01:44:35;;;;;;;2.05;1.40;;;;;;;14.02;86.91;100633.53;4935864;29;20819;-77
2021/08/03 01:47:04;;;;;;;1.92;1.40;;;;;;;14.01;87.19;100631.81;4935520;29;20047;-77
2021/08/03 01:49:37;;;;;;;2.08;1.42;;;;;;;13.98;87.14;100636.38;4916620;29;20036;-78
2021/08/03 01:52:08;;;;;;;2.40;1.30;;;;;;;13.94;87.91;100635.59;4940104;28;20099;-77
2021/08/03 01:54:35;;;;;;;2.20;1.60;;;;;;;13.90;88.36;100631.31;4929048;29;20452;-77
2021/08/03 01:57:02;;;;;;;6.30;2.30;;;;;;;13.87;88.59;100636.72;4929929;29;20048;-77
2021/08/03 01:59:32;;;;;;;4.35;1.80;;;;;;;13.87;88.41;100631.41;4957734;28;20527;-77
2021/08/03 02:02:00;;;;;;;2.95;1.73;;;;;;;13.81;89.03;100636.97;4944928;28;20043;-76
2021/08/03 02:04:28;;;;;;;4.18;1.70;;;;;;;13.84;89.08;100644.81;4940239;29;20057;-77
2021/08/03 02:06:55;;;;;;;4.22;1.70;;;;;;;13.79;89.30;100644.97;4946793;28;20450;-77
2021/08/03 02:09:22;;;;;;;3.40;1.55;;;;;;;13.77;89.82;100640.63;4942981;29;20044;-77
2021/08/03 02:11:50;;;;;;;1.70;1.35;;;;;;;13.73;90.00;100641.66;4915363;29;20111;-78
2021/08/03 02:14:17;;;;;;;3.65;1.58;;;;;;;13.68;90.06;100657.72;4928323;29;20039;-76
2021/08/03 02:16:44;;;;;;;3.35;1.48;;;;;;;13.70;89.48;100655.00;4932530;29;20511;-77
2021/08/03 02:19:11;;;;;;;3.95;1.75;;;;;;;13.60;89.87;100657.13;4911411;29;20115;-77
2021/08/03 02:21:38;;;;;;;3.05;1.55;;;;;;;13.57;89.58;100654.56;4943000;28;20043;-77
2021/08/03 02:24:04;;;;;;;3.08;1.40;;;;;;;13.53;89.80;100660.88;4925052;29;20535;-77
2021/08/03 02:26:31;;;;;;;2.08;1.40;;;;;;;13.46;89.99;100659.38;4937384;29;20048;-77
2021/08/03 02:28:57;;;;;;;2.50;1.55;;;;;;;13.39;90.38;100656.03;4931734;29;20035;-77
2021/08/03 02:31:39;;;;;;;2.95;1.52;;;;;;;13.38;90.57;100664.91;4926981;29;20099;-77
2021/08/03 02:34:11;;;;;;;3.33;1.60;;;;;;;13.33;91.31;100673.94;4947419;28;20044;-77
2021/08/03 02:36:43;;;;;;;2.72;1.35;;;;;;;13.27;90.01;100671.47;4923537;29;20048;-77
2021/08/03 02:39:10;;;;;;;1.58;1.25;;;;;;;13.20;90.62;100666.38;4937283;29;20040;-77
2021/08/03 02:41:37;;;;;;;3.55;1.65;;;;;;;13.17;90.20;100662.91;4933321;29;20515;-77
2021/08/03 02:44:05;;;;;;;1.40;1.30;;;;;;;13.01;91.87;100666.94;4927901;29;20046;-77
2021/08/03 02:46:32;;;;;;;2.75;1.40;;;;;;;13.01;91.70;100672.22;4943890;28;20040;-77
2021/08/03 02:49:12;;;;;;;3.63;1.35;;;;;;;12.94;92.40;100661.81;4919930;29;20535;-77
2021/08/03 02:51:39;;;;;;;1.88;1.33;;;;;;;12.80;92.87;100669.31;4929019;29;20044;-77
2021/08/03 02:54:17;;;;;;;2.20;1.52;;;;;;;12.76;93.95;100670.31;4956595;28;20048;-77
2021/08/03 02:56:48;;;;;;;2.90;1.50;;;;;;;12.79;92.95;100672.03;4931629;29;20440;-77
2021/08/03 02:59:16;;;;;;;3.03;1.30;;;;;;;12.63;94.41;100666.28;4928547;29;20588;-77
2021/08/03 03:01:43;;;;;;;1.88;1.33;;;;;;;12.59;94.36;100672.59;4930381;29;20040;-77
2021/08/03 03:04:19;;;;;;;2.55;1.70;;;;;;;12.53;94.22;100675.44;4920364;29;20051;-76
2021/08/03 03:07:13;;;;;;;1.85;1.45;;;;;;;12.45;94.45;100664.19;4942189;29;20044;-77
2021/08/03 03:09:40;;;;;;;3.42;1.75;;;;;;;12.41;94.97;100660.72;4946873;29;20451;-77
2021/08/03 03:12:08;;;;;;;1.52;1.30;;;;;;;12.38;94.66;100664.34;4929272;29;20051;-77
2021/08/03 03:14:36;;;;;;;2.28;1.70;;;;;;;12.35;94.64;100676.78;4912017;29;20428;-77
2021/08/03 03:17:04;;;;;;;2.13;1.42;;;;;;;12.27;95.15;100670.81;4918383;29;20673;-77
2021/08/03 03:19:35;;;;;;;2.25;1.70;;;;;;;12.28;95.38;100664.66;4947105;29;20127;-77
2021/08/03 03:22:03;;;;;;;2.10;1.38;;;;;;;12.18;95.50;100666.66;4926491;29;20050;-78
2021/08/03 03:24:32;;;;;;;2.45;1.50;;;;;;;12.15;96.47;100665.88;4928582;29;20119;-77
2021/08/03 03:26:59;;;;;;;3.10;1.95;;;;;;;12.06;96.82;100669.63;4932456;29;20043;-77
2021/08/03 03:29:27;;;;;;;2.83;1.75;;;;;;;12.07;96.05;100674.88;4946701;29;20040;-77
2021/08/03 03:31:55;;;;;;;2.67;1.75;;;;;;;12.08;95.06;100676.63;4958953;28;20068;-77
2021/08/03 03:34:22;;;;;;;2.08;1.30;;;;;;;12.01;96.33;100671.53;4932318;29;20100;-77
2021/08/03 03:36:50;;;;;;;2.03;1.50;;;;;;;11.97;95.62;100668.09;4947046;28;20044;-77
2021/08/03 03:39:17;;;;;;;2.75;1.70;;;;;;;11.94;96.27;100669.94;4926067;29;20043;-77
2021/08/03 03:41:49;;;;;;;3.45;1.60;;;;;;;11.91;96.51;100678.84;4918045;29;20047;-78
2021/08/03 03:44:16;;;;;;;2.72;1.65;;;;;;;11.79;97.55;100684.41;4941376;29;20437;-77
2021/08/03 03:46:49;;;;;;;1.92;1.52;;;;;;;11.70;98.25;100671.41;4913006;29;20052;-78
2021/08/03 03:49:18;;;;;;;2.90;1.75;;;;;;;11.70;98.36;100674.94;4914526;29;20048;-77
2021/08/03 03:51:45;;;;;;;2.47;1.60;;;;;;;11.64;98.12;100672.44;4930107;29;20047;-77
2021/08/03 03:54:17;;;;;;;2.33;1.38;;;;;;;11.60;98.48;100683.97;4929451;29;20043;-77
2021/08/03 03:56:50;;;;;;;2.00;1.42;;;;;;;11.57;99.19;100684.94;4942590;29;20047;-77
2021/08/03 03:59:20;;;;;;;2.53;1.50;;;;;;;11.57;99.75;100686.72;4913205;29;20047;-77
2021/08/03 04:01:51;;;;;;;2.67;1.60;;;;;;;11.65;99.44;100689.19;4947804;28;20044;-78
2021/08/03 04:04:19;;;;;;;1.90;1.58;;;;;;;11.68;98.84;100699.69;4920418;29;20047;-77
2021/08/03 04:06:45;;;;;;;3.67;1.50;;;;;;;11.68;99.21;100697.91;4945098;29;20083;-77
2021/08/03 04:09:20;;;;;;;2.50;1.48;;;;;;;11.65;99.42;100700.63;4910326;29;20066;-77
2021/08/03 04:11:47;;;;;;;2.17;1.58;;;;;;;11.66;99.09;100697.06;4930601;29;20440;-77
2021/08/03 04:14:16;;;;;;;2.80;1.58;;;;;;;11.64;99.42;100693.59;4926998;29;20063;-77
2021/08/03 04:16:43;;;;;;;2.70;1.63;;;;;;;11.68;99.08;100695.25;4926344;29;20067;-77
2021/08/03 04:19:10;;;;;;;2.60;1.48;;;;;;;11.73;98.96;100706.59;4930798;29;20042;-77
2021/08/03 04:21:36;;;;;;;2.50;1.95;;;;;;;11.68;100.00;100695.25;4933065;29;20140;-77
2021/08/03 04:24:03;;;;;;;2.30;1.88;;;;;;;11.71;99.85;100696.97;4928624;29;20055;-78
2021/08/03 04:26:30;;;;;;;2.10;1.38;;;;;;;11.69;100.00;100704.97;4956993;28;20044;-77
2021/08/03 04:28:57;;;;;;;2.00;1.50;;;;;;;11.67;100.00;100703.22;4945884;29;20095;-77
2021/08/03 04:31:23;;;;;;;1.92;1.70;;;;;;;11.72;100.00;100717.25;4910536;29;20543;-77
2021/08/03 04:33:51;;;;;;;3.13;1.73;;;;;;;11.78;100.00;100720.63;4918675;29;20044;-78
2021/08/03 04:36:17;;;;;;;3.38;1.80;;;;;;;11.92;100.00;100725.59;4938636;29;20044;-77
2021/08/03 04:38:44;;;;;;;4.10;1.80;;;;;;;12.06;100.00;100727.88;4954142;28;20092;-77
2021/08/03 04:41:10;;;;;;;3.50;2.17;;;;;;;12.18;100.00;100716.09;4916848;29;20094;-77
2021/08/03 04:43:40;;;;;;;2.17;1.70;;;;;;;12.24;100.00;100713.31;4917401;29;20044;-77
2021/08/03 04:46:07;;;;;;;6.38;2.20;;;;;;;12.40;100.00;100709.34;4923106;29;20095;-77
2021/08/03 04:48:34;;;;;;;2.47;1.58;;;;;;;12.49;100.00;100713.50;4921503;29;20048;-76
2021/08/03 04:51:00;;;;;;;2.10;1.60;;;;;;;12.53;100.00;100708.09;4926073;29;20040;-77
2021/08/03 04:53:27;;;;;;;2.33;1.67;;;;;;;12.59;100.00;100707.91;4911045;29;20036;-77
2021/08/03 04:55:54;;;;;;;1.90;1.70;;;;;;;12.74;100.00;100701.31;4915977;29;20051;-76
2021/08/03 04:58:20;;;;;;;3.35;1.95;;;;;;;12.85;100.00;100703.63;4902207;29;20039;-77
2021/08/03 05:00:47;;;;;;;2.08;1.73;;;;;;;12.86;100.00;100706.28;4920371;29;20527;-76
2021/08/03 05:03:14;;;;;;;3.00;1.80;;;;;;;12.91;100.00;100706.13;4890581;29;20040;-76
2021/08/03 05:05:41;;;;;;;3.35;1.92;;;;;;;12.98;100.00;100709.47;4919662;29;20079;-76
2021/08/03 05:08:07;;;;;;;3.15;1.73;;;;;;;13.08;100.00;100711.78;4919792;29;20103;-76
2021/08/03 05:10:36;;;;;;;2.20;1.90;;;;;;;13.20;100.00;100714.13;4930920;29;20048;-77
2021/08/03 05:13:02;;;;;;;2.40;2.03;;;;;;;13.31;100.00;100713.78;4953766;28;20043;-76
2021/08/03 05:15:29;;;;;;;3.45;2.30;;;;;;;13.42;100.00;100703.69;4952805;28;20070;-77
2021/08/03 05:17:56;;;;;;;3.08;1.73;;;;;;;13.46;100.00;100715.97;4956626;28;20055;-76
2021/08/03 05:20:23;;;;;;;4.15;1.90;;;;;;;13.47;100.00;100715.06;4921743;29;20586;-77
2021/08/03 05:22:50;;;;;;;3.60;2.05;;;;;;;13.49;100.00;100709.69;4954607;28;20059;-76
2021/08/03 05:25:23;;;;;;;4.07;2.20;;;;;;;13.49;100.00;100712.34;4927636;29;20724;-75
2021/08/03 05:27:50;;;;;;;3.38;2.10;;;;;;;13.58;100.00;100713.84;4943612;28;20123;-77
2021/08/03 05:30:17;;;;;;;4.90;2.08;;;;;;;13.58;99.61;100708.53;4928886;29;20075;-78
2021/08/03 05:32:44;;;;;;;3.03;1.92;;;;;;;13.59;99.94;100712.91;4929527;29;20084;-76
2021/08/03 05:35:11;;;;;;;2.90;1.98;;;;;;;13.63;99.90;100712.78;4922638;29;20047;-77
2021/08/03 05:37:37;;;;;;;3.63;2.17;;;;;;;13.72;99.04;100717.78;4937245;29;20044;-76
2021/08/03 05:40:08;;;;;;;3.17;1.70;;;;;;;13.78;99.35;100714.03;4927056;29;20036;-77
2021/08/03 05:42:36;;;;;;;4.30;2.25;;;;;;;13.84;98.18;100713.84;4957306;28;20061;-77
2021/08/03 05:45:04;;;;;;;3.75;2.10;;;;;;;13.92;97.77;100714.47;4940445;28;20091;-77
2021/08/03 05:47:31;;;;;;;2.42;2.08;;;;;;;13.93;98.29;100713.53;4951198;28;20052;-76
2021/08/03 05:49:57;;;;;;;3.08;1.90;;;;;;;13.97;98.34;100707.22;4908965;29;20786;-76
2021/08/03 05:52:24;;;;;;;3.78;1.90;;;;;;;14.12;97.98;100710.25;4915912;29;20638;-77
2021/08/03 05:54:51;;;;;;;5.43;2.38;;;;;;;14.15;97.48;100718.16;4939705;28;20416;-76
2021/08/03 05:57:18;;;;;;;3.13;2.13;;;;;;;14.20;97.86;100714.38;4926490;29;20579;-77
2021/08/03 05:59:52;;;;;;;2.90;2.30;;;;;;;14.34;97.31;100719.25;4916006;29;20099;-77
2021/08/03 06:02:30;;;;;;;2.75;2.22;;;;;;;14.53;94.10;100719.47;4927779;29;20519;-77
2021/08/03 06:05:04;;;;;;;3.35;2.00;;;;;;;14.53;94.72;100708.84;4934971;29;20500;-78
2021/08/03 06:07:40;;;;;;;3.40;2.50;;;;;;;14.74;94.93;100715.19;4898786;29;20052;-77
2021/08/03 06:10:15;;;;;;;4.40;2.13;;;;;;;15.12;91.52;100717.25;4929778;29;20296;-77
2021/08/03 06:12:50;;;;;;;2.63;2.17;;;;;;;15.84;86.20;100710.91;4942177;28;20126;-77
2021/08/03 06:15:20;;;;;;;4.07;1.92;;;;;;;16.10;84.02;100705.34;4941761;28;20044;-77
2021/08/03 06:17:59;;;;;;;2.50;1.77;;;;;;;16.08;83.59;100703.69;4961729;28;20047;-75
2021/08/03 06:20:26;;;;;;;3.45;2.03;;;;;;;16.17;82.61;100712.16;4953519;28;20043;-77
2021/08/03 06:22:54;;;;;;;2.58;1.88;;;;;;;16.36;83.23;100714.03;4932592;28;20044;-77
2021/08/03 06:25:21;;;;;;;3.60;1.90;;;;;;;16.53;82.50;100715.03;4962471;28;20063;-77
2021/08/03 06:27:48;;;;;;;3.80;1.85;;;;;;;16.65;80.21;100720.72;4936680;28;20044;-76
2021/08/03 06:30:15;;;;;;;3.10;1.88;;;;;;;17.31;78.35;100714.13;4920617;29;20039;-77
2021/08/03 06:32:45;;;;;;;4.07;2.17;;;;;;;18.48;72.00;100710.09;4943465;29;20525;-77
2021/08/03 06:35:14;;;;;;;2.05;1.65;;;;;;;19.79;65.25;100706.53;4931698;29;20130;-77
2021/08/03 06:37:40;;;;;;;3.55;1.73;;;;;;;20.46;62.88;100702.53;4908701;29;20048;-77
2021/08/03 06:40:09;;;;;;;1.95;1.48;;;;;;;20.88;61.94;100707.09;4939514;29;20188;-77
2021/08/03 06:42:49;;;;;;;1.90;1.70;;;;;;;20.84;60.68;100707.38;4948252;29;20057;-77
2021/08/03 06:45:19;;;;;;;1.42;1.33;;;;;;;20.80;61.23;100707.56;4924861;29;20103;-77
2021/08/03 06:48:09;;;;;;;2.60;1.40;;;;;;;20.80;61.64;100702.19;4925984;29;20040;-77
2021/08/03 06:50:47;;;;;;;3.00;1.50;;;;;;;20.71;61.94;100716.19;4914243;29;20043;-77
2021/08/03 06:53:15;;;;;;;2.60;1.40;;;;;;;20.59;59.12;100721.44;4934614;28;20055;-77
2021/08/03 06:55:42;;;;;;;2.03;1.30;;;;;;;20.63;61.52;100721.16;4918670;29;20488;-77
2021/08/03 06:58:45;;;;;;;3.40;1.90;;;;;;;20.72;62.22;100725.97;4929752;29;20036;-76
2021/08/03 07:01:25;;;;;;;1.75;1.40;;;;;;;20.43;58.76;100724.16;4932018;29;20110;-77
2021/08/03 07:03:55;;;;;;;2.47;1.67;;;;;;;20.47;59.61;100728.41;4963029;28;20107;-77
2021/08/03 07:06:23;;;;;;;2.15;1.38;;;;;;;20.62;58.82;100730.19;4947463;29;20044;-78
2021/08/03 07:08:52;;;;;;;2.28;1.45;;;;;;;20.62;59.88;100730.19;4949329;29;20564;-78
2021/08/03 07:11:20;;;;;;;2.15;1.30;;;;;;;20.83;60.73;100735.19;4961837;28;20094;-78
2021/08/03 07:13:48;;;;;;;3.15;1.35;;;;;;;20.97;61.49;100730.69;4928616;29;20092;-78
2021/08/03 07:16:15;;;;;;;3.90;1.58;;;;;;;20.89;58.13;100734.81;4943527;29;20040;-78
2021/08/03 07:18:42;;;;;;;2.40;1.67;;;;;;;20.97;59.60;100722.63;4950545;29;20051;-79
2021/08/03 07:21:11;;;;;;;2.03;1.45;;;;;;;21.04;60.10;100732.03;4945382;28;20047;-78
2021/08/03 07:23:39;;;;;;;2.28;1.60;;;;;;;21.30;59.15;100735.78;4925797;29;20044;-77
2021/08/03 07:26:06;;;;;;;2.83;1.48;;;;;;;20.67;58.19;100736.13;4954558;28;20043;-78
2021/08/03 07:28:33;;;;;;;2.53;1.10;;;;;;;20.98;59.66;100734.22;4927083;29;20047;-78
2021/08/03 07:31:00;;;;;;;2.97;1.33;;;;;;;21.25;57.63;100731.63;4926937;29;20043;-78
2021/08/03 07:33:27;;;;;;;5.05;1.50;;;;;;;21.37;58.61;100732.72;4933739;29;21918;-78
2021/08/03 07:35:53;;;;;;;2.13;1.67;;;;;;;21.45;58.68;100730.38;4925166;29;20047;-78
2021/08/03 07:38:23;;;;;;;3.28;1.50;;;;;;;21.40;57.68;100740.56;4943180;29;20139;-79
2021/08/03 07:40:49;;;;;;;2.78;1.20;;;;;;;21.56;58.50;100733.22;4941313;29;20044;-78
2021/08/03 07:43:16;;;;;;;1.92;1.40;;;;;;;21.76;57.29;100731.91;4964287;28;20078;-79
2021/08/03 07:45:43;;;;;;;3.00;1.40;;;;;;;21.52;56.40;100740.63;4920368;29;20115;-79
2021/08/03 07:48:10;;;;;;;1.77;1.27;;;;;;;21.18;56.85;100733.81;4905001;29;20040;-78
2021/08/03 07:50:36;;;;;;;2.70;1.63;;;;;;;21.09;58.04;100734.41;4926582;29;20443;-78
2021/08/03 07:53:03;;;;;;;3.95;1.52;;;;;;;21.07;57.05;100734.50;4919773;29;20080;-78
2021/08/03 07:55:30;;;;;;;2.20;1.25;;;;;;;20.74;56.37;100732.09;4943912;29;20515;-78
2021/08/03 07:57:56;;;;;;;2.17;1.35;;;;;;;20.69;58.77;100733.34;4947343;29;20047;-78
2021/08/03 08:00:23;;;;;;;1.63;1.10;;;;;;;20.41;57.34;100736.81;4926251;29;20075;-80
2021/08/03 08:02:50;;;;;;;3.10;1.30;;;;;;;20.19;58.47;100738.09;4961555;28;20765;-78
2021/08/03 08:05:17;;;;;;;1.98;1.20;;;;;;;19.74;59.78;100736.25;4933772;29;20086;-79
2021/08/03 08:07:44;;;;;;;1.67;1.20;;;;;;;19.34;61.60;100732.28;4927341;29;20095;-78
2021/08/03 08:10:11;;;;;;;1.90;1.10;;;;;;;19.06;63.82;100741.81;4947247;28;20404;-79
2021/08/03 08:12:37;;;;;;;1.67;1.30;;;;;;;19.01;65.08;100735.84;4959099;28;20051;-79
2021/08/03 08:15:06;;;;;;;3.53;1.30;;;;;;;18.98;64.91;100736.00;4933567;28;20044;-76
2021/08/03 08:17:32;;;;;;;1.48;1.10;;;;;;;19.06;65.51;100736.44;4929225;29;20063;-79
2021/08/03 08:19:59;;;;;;;1.50;1.02;;;;;;;19.12;64.21;100730.78;4943496;29;20055;-79
2021/08/03 08:22:26;;;;;;;1.88;1.10;;;;;;;19.24;62.29;100731.91;4932192;29;20055;-77
2021/08/03 08:24:52;;;;;;;1.48;1.38;;;;;;;19.08;63.92;100733.69;4933554;29;20850;-80
2021/08/03 08:27:19;;;;;;;2.45;1.30;;;;;;;19.20;65.92;100734.84;4930181;29;20795;-78
2021/08/03 08:29:46;;;;;;;1.70;1.20;;;;;;;19.17;62.62;100727.84;4957544;28;20051;-77
2021/08/03 08:32:13;;;;;;;2.72;1.27;;;;;;;19.12;65.05;100727.22;4961797;28;20043;-77
2021/08/03 08:34:39;;;;;;;2.45;1.30;;;;;;;19.65;63.39;100718.03;4959405;28;20047;-77
2021/08/03 08:37:06;;;;;;;2.50;1.10;;;;;;;19.62;62.31;100716.38;4960946;28;20050;-77
2021/08/03 08:39:33;;;;;;;2.38;1.13;;;;;;;19.85;60.02;100723.13;4920618;29;20055;-77
2021/08/03 08:42:00;;;;;;;3.08;1.40;;;;;;;19.74;60.41;100714.81;4946857;29;20048;-79
2021/08/03 08:44:30;;;;;;;1.63;1.20;;;;;;;19.72;62.01;100711.38;4941293;28;20048;-78
2021/08/03 08:46:58;;;;;;;1.70;1.20;;;;;;;19.80;63.40;100714.47;4919033;29;20040;-78
2021/08/03 08:49:35;;;;;;;2.10;1.25;;;;;;;19.74;63.56;100713.94;4944696;29;20068;-78
2021/08/03 08:52:04;;;;;;;2.20;2.00;;;;;;;19.72;63.29;100714.03;4913761;29;20089;-79
2021/08/03 08:54:32;;;;;;;1.95;1.25;;;;;;;19.44;63.56;100719.22;4927342;29;20047;-80
2021/08/03 08:57:02;;;;;;;2.45;1.90;;;;;;;19.59;64.89;100711.22;4930954;29;20055;-77
2021/08/03 08:59:28;;;;;;;2.90;1.50;;;;;;;19.34;63.01;100721.56;4957705;28;20035;-79
2021/08/03 09:01:55;;;;;;;2.60;1.42;;;;;;;19.71;63.69;100720.38;4939966;28;20119;-78
2021/08/03 09:04:25;;;;;;;3.35;1.90;;;;;;;20.10;63.65;100722.56;4949386;28;20040;-81
2021/08/03 09:07:06;;;;;;;1.77;1.40;;;;;;;20.08;60.45;100718.22;4920107;29;20051;-78
2021/08/03 09:09:44;;;;;;;3.20;1.77;;;;;;;20.07;59.96;100719.16;4961096;23;20057;-81
2021/08/03 09:12:12;;;;;;;2.35;1.45;;;;;;;20.10;59.89;100721.69;4953149;28;20051;-81
2021/08/03 09:14:43;;;;;;;2.70;1.70;;;;;;;20.32;61.62;100714.06;4955802;28;20106;-81
2021/08/03 09:17:11;;;;;;;2.22;1.50;;;;;;;20.51;60.22;100712.06;4946936;28;20039;-82
2021/08/03 09:19:40;;;;;;;2.25;1.67;;;;;;;20.67;59.00;100716.47;4933193;28;20670;-82
2021/08/03 09:22:14;;;;;;;2.17;1.75;;;;;;;20.60;58.94;100715.09;4947696;29;20482;-80
2021/08/03 09:24:43;;;;;;;1.98;1.40;;;;;;;20.41;59.48;100718.88;4960988;28;20071;-82
2021/08/03 09:27:37;;;;;;;1.67;1.48;;;;;;;20.22;61.11;100716.44;4951300;28;20039;-80
2021/08/03 09:30:06;;;;;;;1.83;1.35;;;;;;;20.01;60.73;100719.53;4948641;29;20342;-83
2021/08/03 09:32:34;;;;;;;4.32;1.42;;;;;;;19.98;59.27;100717.88;4923560;29;20098;-81
2021/08/03 09:35:12;;;;;;;2.15;1.15;;;;;;;19.79;61.82;100720.78;4946642;28;20470;-81
2021/08/03 09:37:41;;;;;;;3.75;1.63;;;;;;;19.62;62.75;100727.13;4952542;28;20059;-81
2021/08/03 09:40:31;;;;;;;1.17;1.08;;;;;;;19.29;62.93;100724.47;4953557;28;20055;-82
2021/08/03 09:43:04;;;;;;;2.38;1.65;;;;;;;19.33;65.65;100722.47;4951608;29;20049;-83
2021/08/03 09:45:33;;;;;;;2.47;1.70;;;;;;;19.34;66.96;100718.88;4937760;29;20047;-82
2021/08/03 09:48:15;;;;;;;2.15;1.55;;;;;;;19.26;66.42;100718.44;4940012;29;20312;-83
2021/08/03 09:50:56;;;;;;;1.30;1.17;;;;;;;19.33;64.49;100727.84;4936672;28;20047;-83
2021/08/03 09:53:42;;;;;;;1.83;1.58;;;;;;;19.16;64.67;100728.78;4941276;29;20058;-82
2021/08/03 09:56:12;;;;;;;1.65;1.23;;;;;;;19.15;67.64;100732.41;4954725;28;20054;-83
2021/08/03 09:59:02;;;;;;;1.50;1.27;;;;;;;19.16;70.22;100730.59;4986412;28;20054;-82
2021/08/03 10:01:49;;;;;;;2.50;1.55;;;;;;;19.14;69.61;100722.66;4946071;28;20047;-81
2021/08/03 10:04:16;;;;;;;4.18;1.70;;;;;;;19.10;68.56;100730.00;4952641;28;20070;-83
2021/08/03 10:06:44;;;;;;;2.30;1.85;;;;;;;19.03;68.37;100728.59;4927453;29;20047;-81
2021/08/03 10:09:13;;;;;;;3.88;1.70;;;;;;;19.21;66.44;100720.50;4954669;28;20040;-81
2021/08/03 10:11:40;;;;;;;2.85;1.40;;;;;;;19.84;68.47;100715.13;4938083;29;20494;-84
2021/08/03 10:14:24;;;;;;;1.80;1.30;;;;;;;20.60;62.29;100707.06;4952396;29;20103;-83
2021/08/03 10:16:53;;;;;;;3.20;1.10;;;;;;;21.20;57.17;100702.38;4957593;28;20044;-80
2021/08/03 10:19:22;;;;;;;1.98;1.25;;;;;;;21.53;56.52;100710.13;4955478;28;20043;-84
2021/08/03 10:22:00;;;;;;;1.42;1.02;;;;;;;21.59;55.89;100706.13;4927683;29;20095;-83
2021/08/03 10:24:30;;;;;;;2.70;1.10;;;;;;;21.63;56.86;100713.91;4944720;29;20425;-83
2021/08/03 10:27:17;;;;;;;1.83;1.38;;;;;;;21.66;56.56;100707.47;4937371;29;20039;-85
2021/08/03 10:29:52;;;;;;;2.50;1.30;;;;;;;21.60;56.61;100716.78;4932858;29;20039;-81
2021/08/03 10:32:42;;;;;;;1.90;1.23;;;;;;;21.63;55.61;100710.38;4951011;28;20043;-83
2021/08/03 10:35:16;;;;;;;1.65;1.23;;;;;;;21.17;55.00;100705.22;4935640;28;20055;-82
2021/08/03 10:38:06;;;;;;;1.90;1.30;;;;;;;21.07;56.69;100704.09;4958116;28;20595;-82
2021/08/03 10:57:05;;;;;;;2.05;1.50;;;;;;;22.98;46.50;100688.56;5062827;28;20416;-81
2021/08/03 10:59:48;;;;;;;1.35;1.10;;;;;;;22.75;45.98;100672.16;5043974;28;20114;-81
2021/08/03 11:02:50;;;;;;;1.30;1.00;;;;;;;23.20;47.61;100682.47;5027670;28;20038;-81
2021/08/03 11:05:40;;;;;;;1.15;0.80;;;;;;;23.20;44.35;100674.38;5022200;28;20064;-80
2021/08/03 11:08:29;;;;;;;1.15;1.00;;;;;;;23.39;45.43;100682.00;5019746;28;20045;-81
2021/08/03 11:10:57;;;;;;;2.10;1.38;;;;;;;23.50;44.25;100676.69;5027164;28;20041;-82
2021/08/03 11:13:35;;;;;;;1.73;1.23;;;;;;;23.62;43.09;100673.09;5023742;28;20041;-82
2021/08/03 11:16:03;;;;;;;1.35;1.13;;;;;;;23.62;43.10;100677.63;5045725;28;20505;-83
2021/08/03 11:19:00;;;;;;;2.17;1.10;;;;;;;23.34;44.08;100676.94;5022814;28;20041;-83
2021/08/03 11:21:42;;;;;;;1.05;0.90;;;;;;;23.13;44.10;100676.69;5027986;28;20041;-83
2021/08/03 11:24:12;;;;;;;0.90;0.90;;;;;;;23.16;45.57;100676.47;5027834;28;20064;-83
2021/08/03 11:26:47;;;;;;;1.77;1.30;;;;;;;23.27;44.86;100676.53;5018323;28;20115;-83
2021/08/03 11:29:18;;;;;;;1.52;1.20;;;;;;;23.34;42.47;100668.84;5041911;28;20118;-83
2021/08/03 11:32:08;;;;;;;2.20;1.20;;;;;;;23.53;44.29;100661.13;5019806;28;20336;-83
2021/08/03 11:34:41;;;;;;;1.75;0.95;;;;;;;23.95;43.86;100663.44;5038004;28;20425;-82
2021/08/03 11:37:19;;;;;;;1.20;1.00;;;;;;;24.13;42.92;100673.69;5027887;28;20045;-82
2021/08/03 11:39:50;;;;;;;3.72;1.20;;;;;;;23.41;42.94;100664.75;5033649;28;20498;-81
2021/08/03 11:42:36;;;;;;;1.77;1.27;;;;;;;23.17;45.11;100677.31;5040709;28;20561;-82
2021/08/03 11:45:11;;;;;;;2.67;1.17;;;;;;;22.87;44.59;100685.75;5029272;28;20041;-82
2021/08/03 11:47:44;;;;;;;1.88;1.10;;;;;;;22.73;43.65;100675.94;5045591;28;20051;-82
2021/08/03 11:50:30;;;;;;;1.20;0.90;;;;;;;22.76;44.75;100667.66;5025566;28;20478;-82
2021/08/03 11:53:06;;;;;;;1.67;1.10;;;;;;;22.26;44.79;100669.34;5049622;28;20055;-82
2021/08/03 11:55:34;;;;;;;2.53;1.25;;;;;;;22.74;44.12;100666.91;5006193;28;20042;-80
2021/08/03 11:58:01;;;;;;;1.92;1.13;;;;;;;22.86;43.31;100671.44;5012909;28;20041;-81